CheckWX is a tool to help pilots better visualize weather data.  It is not intended as a substitute for an official pre-flight weather briefing.

15:42:38 UTC

GVAC TAF
Amílcar Cabral International Airport
Espargos, Cape Verde
TAF GVAC 061100Z 0612/0718 04015G27KT 9999 BKN014 BECMG 0617/0619 04015KT

Apr-6@
12:00 UTC

Apr-6 @ 12:00 UTC

Apr-6@
17:00 UTC

Apr-6 @ 17:00 UTC

TAF GVAC 061100Z 0612/0718 04015G27KT 9999 BKN014

Expired

Wind
  • 040° at 15 KTS
  • {Gusting to 27 KTS
Cloud Levels
  • Broken at 1,400' AGL

Apr-6@
17:00 UTC

Apr-6 @ 17:00 UTC

Apr-7@
18:00 UTC

Apr-7 @ 18:00 UTC

BECMG 0617/0619 04015KT

Becoming

Becoming Conditions expected by Mon, Apr 6, 2020 @ 19:00 UTC

Wind
  • 040° at 15 KTS
Cloud Levels
  • Broken at 1,400' AGL